createdAt,value
2017-03-08T00:00:39.983Z,0
2017-03-08T00:01:39.599Z,0
2017-03-08T00:02:39.466Z,0
2017-03-08T00:03:39.458Z,0
2017-03-08T00:04:39.417Z,0
2017-03-08T00:05:39.410Z,0
2017-03-08T00:06:39.916Z,0
2017-03-08T00:07:39.744Z,0
2017-03-08T00:08:39.373Z,0
2017-03-08T00:09:38.916Z,0
2017-03-08T00:10:39.792Z,0
2017-03-08T00:11:39.667Z,0
2017-03-08T00:12:38.458Z,0
2017-03-08T00:13:38.430Z,0
2017-03-08T00:14:38.792Z,0
2017-03-08T00:15:39.150Z,0
2017-03-08T00:16:39.585Z,0
2017-03-08T00:17:38.739Z,0
2017-03-08T00:18:38.732Z,0
2017-03-08T00:19:39.457Z,0
2017-03-08T00:20:39.473Z,0
2017-03-08T00:21:39.418Z,0
2017-03-08T00:22:39.026Z,0
2017-03-08T00:23:38.985Z,0
2017-03-08T00:24:39.347Z,0
2017-03-08T00:25:38.564Z,0
2017-03-08T00:26:38.194Z,0
2017-03-08T00:27:38.256Z,0
2017-03-08T00:28:38.486Z,0
2017-03-08T00:29:38.849Z,0
2017-03-08T00:30:38.525Z,0
2017-03-08T00:31:38.409Z,0
2017-03-08T00:32:38.483Z,0
2017-03-08T00:33:38.871Z,0
2017-03-08T00:34:38.328Z,0
2017-03-08T00:35:38.299Z,0
2017-03-08T00:36:38.907Z,0
2017-03-08T00:37:37.883Z,0
2017-03-08T00:38:38.706Z,0
2017-03-08T00:39:38.336Z,0
2017-03-08T00:40:38.205Z,0
2017-03-08T00:41:37.777Z,0
2017-03-08T00:42:38.549Z,0
2017-03-08T00:43:38.489Z,0
2017-03-08T00:44:38.945Z,0
2017-03-08T00:45:38.494Z,0
2017-03-08T00:46:38.432Z,0
2017-03-08T00:47:38.083Z,0
2017-03-08T00:48:38.054Z,0
2017-03-08T00:49:38.397Z,0
2017-03-08T00:50:38.091Z,0
2017-03-08T00:51:37.948Z,0
2017-03-08T00:52:38.319Z,0
2017-03-08T00:53:38.279Z,0
2017-03-08T00:54:37.852Z,0
2017-03-08T00:55:37.946Z,0
2017-03-08T00:56:37.813Z,0
2017-03-08T00:57:37.850Z,0
2017-03-08T00:58:37.915Z,0
2017-03-08T00:59:38.153Z,0
2017-03-08T01:00:37.744Z,0
2017-03-08T01:01:38.557Z,0
2017-03-08T01:02:37.675Z,0
2017-03-08T01:03:37.644Z,0
2017-03-08T01:04:37.746Z,0
2017-03-08T01:05:38.033Z,0
2017-03-08T01:06:38.033Z,0
2017-03-08T01:07:37.613Z,0
2017-03-08T01:08:38.338Z,0
2017-03-08T01:09:37.520Z,0
2017-03-08T01:10:37.875Z,0
2017-03-08T01:11:37.595Z,0
2017-03-08T01:12:37.898Z,0
2017-03-08T01:13:37.809Z,0
2017-03-08T01:14:37.840Z,0
2017-03-08T01:15:38.217Z,0
2017-03-08T01:16:37.356Z,0
2017-03-08T01:17:38.086Z,0
2017-03-08T01:18:37.305Z,0
2017-03-08T01:19:37.313Z,0
2017-03-08T01:20:37.643Z,0
2017-03-08T01:21:37.615Z,0
2017-03-08T01:22:37.620Z,0
2017-03-08T01:23:37.620Z,0
2017-03-08T01:24:37.980Z,0
2017-03-08T01:25:37.524Z,0
2017-03-08T01:26:37.166Z,0
2017-03-08T01:27:37.471Z,0
2017-03-08T01:28:37.182Z,0
2017-03-08T01:29:37.533Z,0
2017-03-08T01:30:36.641Z,0
2017-03-08T01:31:36.634Z,0
2017-03-08T01:32:37.811Z,0
2017-03-08T01:33:36.950Z,0
2017-03-08T01:34:37.329Z,0
2017-03-08T01:35:36.518Z,0
2017-03-08T01:36:37.269Z,0
2017-03-08T01:37:37.683Z,0
2017-03-08T01:38:36.840Z,0
2017-03-08T01:39:36.797Z,0
2017-03-08T01:40:36.032Z,0
2017-03-08T01:41:37.632Z,0
2017-03-08T01:42:36.735Z,0
2017-03-08T01:43:37.164Z,0
2017-03-08T01:44:37.566Z,0
2017-03-08T01:45:37.066Z,0
2017-03-08T01:46:36.653Z,0
2017-03-08T01:47:37.414Z,0
2017-03-08T01:48:36.319Z,0
2017-03-08T01:49:36.588Z,0
2017-03-08T01:50:36.638Z,0
2017-03-08T01:51:36.942Z,0
2017-03-08T01:52:36.912Z,0
2017-03-08T01:53:37.339Z,0
2017-03-08T01:54:36.450Z,0
2017-03-08T01:55:37.228Z,0
2017-03-08T01:56:37.240Z,0
2017-03-08T01:57:36.790Z,0
2017-03-08T01:58:36.382Z,0
2017-03-08T01:59:36.747Z,0
2017-03-08T02:00:36.352Z,0
2017-03-08T02:01:37.089Z,0
2017-03-08T02:02:35.911Z,0
2017-03-08T02:03:37.018Z,0
2017-03-08T02:04:37.085Z,0
2017-03-08T02:05:36.263Z,0
2017-03-08T02:06:36.202Z,0
2017-03-08T02:07:36.535Z,0
2017-03-08T02:08:36.567Z,0
2017-03-08T02:09:35.780Z,0
2017-03-08T02:10:36.474Z,0
2017-03-08T02:11:36.440Z,0
2017-03-08T02:12:36.035Z,0
2017-03-08T02:13:35.625Z,0
2017-03-08T02:14:36.442Z,0
2017-03-08T02:15:35.971Z,0
2017-03-08T02:16:35.931Z,0
2017-03-08T02:17:35.939Z,0
2017-03-08T02:18:36.280Z,0
2017-03-08T02:19:36.295Z,0
2017-03-08T02:20:35.865Z,0
2017-03-08T02:21:36.220Z,0
2017-03-08T02:22:35.548Z,0
2017-03-08T02:23:36.177Z,0
2017-03-08T02:24:36.222Z,0
2017-03-08T02:25:35.367Z,0
2017-03-08T02:26:35.342Z,0
2017-03-08T02:27:36.070Z,0
2017-03-08T02:28:35.709Z,0
2017-03-08T02:29:36.009Z,0
2017-03-08T02:30:35.696Z,0
2017-03-08T02:31:35.570Z,0
2017-03-08T02:32:35.979Z,0
2017-03-08T02:33:35.179Z,0
2017-03-08T02:34:35.142Z,0
2017-03-08T02:35:35.890Z,0
2017-03-08T02:36:35.841Z,0
2017-03-08T02:37:35.818Z,0
2017-03-08T02:38:35.046Z,0
2017-03-08T02:39:35.424Z,0
2017-03-08T02:40:35.419Z,0
2017-03-08T02:41:35.379Z,0
2017-03-08T02:42:35.731Z,0
2017-03-08T02:43:35.706Z,0
2017-03-08T02:44:34.486Z,0
2017-03-08T02:45:35.683Z,0
2017-03-08T02:46:35.242Z,0
2017-03-08T02:47:35.620Z,0
2017-03-08T02:48:35.564Z,0
2017-03-08T02:49:35.564Z,0
2017-03-08T02:50:34.772Z,0
2017-03-08T02:51:35.123Z,0
2017-03-08T02:52:35.476Z,0
2017-03-08T02:53:34.668Z,0
2017-03-08T02:54:35.414Z,0
2017-03-08T02:55:35.017Z,0
2017-03-08T02:56:34.991Z,0
2017-03-08T02:57:35.028Z,0
2017-03-08T02:58:34.535Z,0
2017-03-08T02:59:34.547Z,0
2017-03-08T03:00:35.281Z,0
2017-03-08T03:01:34.986Z,0
2017-03-08T03:02:34.852Z,0
2017-03-08T03:03:35.240Z,0
2017-03-08T03:04:34.420Z,0
2017-03-08T03:05:34.773Z,0
2017-03-08T03:06:35.208Z,0
2017-03-08T03:07:35.112Z,0
2017-03-08T03:08:35.121Z,0
2017-03-08T03:09:35.070Z,0
2017-03-08T03:10:33.904Z,0
2017-03-08T03:11:35.428Z,0
2017-03-08T03:12:34.991Z,0
2017-03-08T03:13:34.998Z,0
2017-03-08T03:14:34.558Z,0
2017-03-08T03:15:34.929Z,0
2017-03-08T03:16:34.937Z,0
2017-03-08T03:17:34.510Z,0
2017-03-08T03:18:35.254Z,0
2017-03-08T03:19:35.224Z,0
2017-03-08T03:20:34.816Z,0
2017-03-08T03:21:34.493Z,0
2017-03-08T03:22:34.376Z,0
2017-03-08T03:23:34.737Z,0
2017-03-08T03:24:34.712Z,0
2017-03-08T03:25:33.999Z,0
2017-03-08T03:26:35.089Z,0
2017-03-08T03:27:34.759Z,0
2017-03-08T03:28:33.889Z,0
2017-03-08T03:29:34.611Z,0
2017-03-08T03:30:34.686Z,0
2017-03-08T03:31:34.577Z,0
2017-03-08T03:32:34.521Z,0
2017-03-08T03:33:34.119Z,0
2017-03-08T03:34:34.078Z,0
2017-03-08T03:35:34.097Z,0
2017-03-08T03:36:34.112Z,0
2017-03-08T03:37:33.656Z,0
2017-03-08T03:38:34.066Z,0
2017-03-08T03:39:33.975Z,0
2017-03-08T03:40:34.427Z,0
2017-03-08T03:41:33.915Z,0
2017-03-08T03:42:34.664Z,0
2017-03-08T03:43:34.282Z,0
2017-03-08T03:44:34.627Z,0
2017-03-08T03:45:34.212Z,0
2017-03-08T03:46:34.558Z,0
2017-03-08T03:47:33.876Z,0
2017-03-08T03:48:33.460Z,0
2017-03-08T03:49:33.329Z,0
2017-03-08T03:50:33.777Z,0
2017-03-08T03:51:34.170Z,0
2017-03-08T03:52:34.049Z,0
2017-03-08T03:53:33.718Z,0
2017-03-08T03:54:33.212Z,0
2017-03-08T03:55:34.065Z,0
2017-03-08T03:56:34.345Z,0
2017-03-08T03:57:34.334Z,0
2017-03-08T03:58:33.117Z,0
2017-03-08T03:59:33.489Z,0
2017-03-08T04:00:33.854Z,0
2017-03-08T04:01:33.482Z,0
2017-03-08T04:02:33.025Z,0
2017-03-08T04:03:33.424Z,0
2017-03-08T04:04:34.140Z,0
2017-03-08T04:05:33.763Z,0
2017-03-08T04:06:33.323Z,0
2017-03-08T04:07:34.070Z,0
2017-03-08T04:08:33.310Z,0
2017-03-08T04:09:33.261Z,0
2017-03-08T04:10:34.001Z,0
2017-03-08T04:11:33.733Z,0
2017-03-08T04:12:33.187Z,0
2017-03-08T04:13:32.761Z,0
2017-03-08T04:14:33.497Z,0
2017-03-08T04:15:33.495Z,0
2017-03-08T04:16:32.705Z,0
2017-03-08T04:17:33.068Z,0
2017-03-08T04:18:32.726Z,0
2017-03-08T04:19:33.425Z,0
2017-03-08T04:20:32.653Z,0
2017-03-08T04:21:32.953Z,0
2017-03-08T04:22:32.990Z,0
2017-03-08T04:23:33.282Z,0
2017-03-08T04:24:32.492Z,0
2017-03-08T04:25:32.912Z,0
2017-03-08T04:26:33.225Z,0
2017-03-08T04:27:32.830Z,0
2017-03-08T04:28:33.550Z,0
2017-03-08T04:29:33.539Z,0
2017-03-08T04:30:33.136Z,0
2017-03-08T04:31:33.098Z,0
2017-03-08T04:32:33.532Z,0
2017-03-08T04:33:32.656Z,0
2017-03-08T04:34:32.707Z,0
2017-03-08T04:35:33.009Z,0
2017-03-08T04:36:32.315Z,0
2017-03-08T04:37:32.975Z,0
2017-03-08T04:38:32.716Z,0
2017-03-08T04:39:32.511Z,0
2017-03-08T04:40:32.903Z,0
2017-03-08T04:41:32.079Z,0
2017-03-08T04:42:32.850Z,0
2017-03-08T04:43:32.821Z,0
2017-03-08T04:44:32.431Z,0
2017-03-08T04:45:31.980Z,0
2017-03-08T04:46:32.744Z,0
2017-03-08T04:47:33.272Z,0
2017-03-08T04:48:32.399Z,0
2017-03-08T04:49:32.289Z,0
2017-03-08T04:50:32.637Z,0
2017-03-08T04:51:33.007Z,0
2017-03-08T04:52:32.967Z,0
2017-03-08T04:53:32.301Z,0
2017-03-08T04:54:32.542Z,0
2017-03-08T04:55:33.029Z,0
2017-03-08T04:56:32.135Z,0
2017-03-08T04:57:32.487Z,0
2017-03-08T04:58:32.451Z,0
2017-03-08T04:59:31.635Z,0
2017-03-08T05:00:32.014Z,0
2017-03-08T05:01:32.052Z,0
2017-03-08T05:02:31.978Z,0
2017-03-08T05:03:31.551Z,0
2017-03-08T05:04:32.441Z,0
2017-03-08T05:05:31.921Z,0
2017-03-08T05:06:32.256Z,0
2017-03-08T05:07:31.561Z,0
2017-03-08T05:08:32.599Z,0
2017-03-08T05:09:32.577Z,0
2017-03-08T05:10:31.797Z,0
2017-03-08T05:11:31.736Z,0
2017-03-08T05:12:32.108Z,0
2017-03-08T05:13:32.076Z,0
2017-03-08T05:14:32.443Z,0
2017-03-08T05:15:31.636Z,0
2017-03-08T05:16:31.607Z,0
2017-03-08T05:17:31.615Z,0
2017-03-08T05:18:32.487Z,0
2017-03-08T05:19:31.580Z,0
2017-03-08T05:20:31.533Z,0
2017-03-08T05:21:31.508Z,0
2017-03-08T05:22:32.272Z,0
2017-03-08T05:23:32.311Z,0
2017-03-08T05:24:32.209Z,0
2017-03-08T05:25:30.998Z,0
2017-03-08T05:26:31.818Z,0
2017-03-08T05:27:30.942Z,0
2017-03-08T05:28:31.364Z,0
2017-03-08T05:29:31.743Z,0
2017-03-08T05:30:31.303Z,0
2017-03-08T05:31:31.657Z,0
2017-03-08T05:32:31.621Z,0
2017-03-08T05:33:30.874Z,0
2017-03-08T05:34:31.224Z,0
2017-03-08T05:35:31.596Z,0
2017-03-08T05:36:31.187Z,0
2017-03-08T05:37:31.134Z,0
2017-03-08T05:38:31.096Z,0
2017-03-08T05:39:31.856Z,0
2017-03-08T05:40:31.446Z,0
2017-03-08T05:41:31.407Z,0
2017-03-08T05:42:31.773Z,0
2017-03-08T05:43:31.403Z,0
2017-03-08T05:44:30.937Z,0
2017-03-08T05:45:31.664Z,0
2017-03-08T05:46:31.631Z,0
2017-03-08T05:47:31.309Z,0
2017-03-08T05:48:31.200Z,0
2017-03-08T05:49:31.311Z,0
2017-03-08T05:50:30.773Z,0
2017-03-08T05:51:30.775Z,0
2017-03-08T05:52:31.142Z,0
2017-03-08T05:53:30.314Z,0
2017-03-08T05:54:31.134Z,0
2017-03-08T05:55:31.056Z,0
2017-03-08T05:56:30.639Z,0
2017-03-08T05:57:30.607Z,0
2017-03-08T05:58:31.037Z,0
2017-03-08T05:59:31.081Z,0
2017-03-08T06:00:31.319Z,0
2017-03-08T06:01:30.893Z,0
2017-03-08T06:02:30.971Z,0
2017-03-08T06:03:30.883Z,0
2017-03-08T06:04:30.823Z,0
2017-03-08T06:05:30.145Z,0
2017-03-08T06:06:30.777Z,0
2017-03-08T06:07:31.296Z,0
2017-03-08T06:08:30.408Z,0
2017-03-08T06:09:29.976Z,0
2017-03-08T06:10:30.368Z,0
2017-03-08T06:11:30.661Z,0
2017-03-08T06:12:30.260Z,0
2017-03-08T06:13:30.284Z,0
2017-03-08T06:14:31.083Z,0
2017-03-08T06:15:30.587Z,0
2017-03-08T06:16:30.536Z,0
2017-03-08T06:17:30.202Z,0
2017-03-08T06:18:30.482Z,0
2017-03-08T06:19:30.469Z,0
2017-03-08T06:20:30.082Z,0
2017-03-08T06:21:30.403Z,0
2017-03-08T06:22:30.399Z,0
2017-03-08T06:23:30.742Z,5
2017-03-08T06:24:30.333Z,5
2017-03-08T06:25:30.757Z,5
2017-03-08T06:26:30.399Z,5
2017-03-08T06:27:30.302Z,5
2017-03-08T06:28:29.506Z,5
2017-03-08T06:29:29.831Z,5
2017-03-08T06:30:29.943Z,5
2017-03-08T06:31:30.179Z,5
2017-03-08T06:32:30.560Z,5
2017-03-08T06:33:30.146Z,5
2017-03-08T06:34:30.147Z,5
2017-03-08T06:35:30.060Z,5
2017-03-08T06:36:30.046Z,5
2017-03-08T06:37:30.102Z,5
2017-03-08T06:38:29.718Z,5
2017-03-08T06:39:30.376Z,5
2017-03-08T06:40:29.951Z,5
2017-03-08T06:41:29.972Z,5
2017-03-08T06:42:29.130Z,5
2017-03-08T06:43:29.514Z,5
2017-03-08T06:44:30.320Z,5
2017-03-08T06:45:29.970Z,5
2017-03-08T06:46:29.412Z,5
2017-03-08T06:47:29.404Z,5
2017-03-08T06:48:29.787Z,5
2017-03-08T06:49:29.768Z,5
2017-03-08T06:50:29.319Z,5
2017-03-08T06:51:29.683Z,5
2017-03-08T06:52:30.061Z,5
2017-03-08T06:53:29.236Z,10
2017-03-08T06:54:29.685Z,10
2017-03-08T06:55:29.194Z,10
2017-03-08T06:56:29.583Z,10
2017-03-08T06:57:29.551Z,5
2017-03-08T06:58:29.973Z,5
2017-03-08T06:59:29.643Z,5
2017-03-08T07:00:29.470Z,5
2017-03-08T07:01:29.090Z,5
2017-03-08T07:02:28.232Z,5
2017-03-08T07:03:28.623Z,5
2017-03-08T07:04:29.393Z,5
2017-03-08T07:05:28.949Z,10
2017-03-08T07:06:29.381Z,10
2017-03-08T07:07:28.898Z,10
2017-03-08T07:08:29.327Z,10
2017-03-08T07:09:29.265Z,10
2017-03-08T07:10:29.637Z,10
2017-03-08T07:11:28.796Z,10
2017-03-08T07:12:29.573Z,10
2017-03-08T07:13:28.381Z,10
2017-03-08T07:14:28.399Z,10
2017-03-08T07:15:29.097Z,15
2017-03-08T07:16:28.734Z,15
2017-03-08T07:17:29.519Z,15
2017-03-08T07:18:29.482Z,15
2017-03-08T07:19:28.271Z,20
2017-03-08T07:20:29.029Z,20
2017-03-08T07:21:28.551Z,20
2017-03-08T07:22:29.351Z,25
2017-03-08T07:23:28.899Z,25
2017-03-08T07:24:28.921Z,25
2017-03-08T07:25:28.860Z,25
2017-03-08T07:26:28.528Z,30
2017-03-08T07:27:28.418Z,30
2017-03-08T07:28:28.396Z,30
2017-03-08T07:29:28.836Z,30
2017-03-08T07:30:27.986Z,30
2017-03-08T07:31:29.203Z,30
2017-03-08T07:32:28.698Z,30
2017-03-08T07:33:28.272Z,30
2017-03-08T07:34:28.635Z,30
2017-03-08T07:35:27.861Z,25
2017-03-08T07:36:29.252Z,25
2017-03-08T07:37:28.214Z,25
2017-03-08T07:38:28.952Z,20
2017-03-08T07:39:27.501Z,20
2017-03-08T07:40:27.907Z,20
2017-03-08T07:41:28.859Z,20
2017-03-08T07:42:28.074Z,15
2017-03-08T07:43:28.113Z,15
2017-03-08T07:44:28.594Z,15
2017-03-08T07:45:28.384Z,15
2017-03-08T07:46:27.974Z,15
2017-03-08T07:47:28.327Z,15
2017-03-08T07:48:28.317Z,15
2017-03-08T07:49:28.736Z,15
2017-03-08T07:50:28.286Z,15
2017-03-08T07:51:27.837Z,15
2017-03-08T07:52:27.814Z,15
2017-03-08T07:53:28.233Z,15
2017-03-08T07:54:27.778Z,15
2017-03-08T07:55:27.347Z,15
2017-03-08T07:56:28.222Z,15
2017-03-08T07:57:28.091Z,15
2017-03-08T07:58:28.051Z,15
2017-03-08T07:59:28.046Z,15
2017-03-08T08:00:27.610Z,15
2017-03-08T08:01:27.995Z,15
2017-03-08T08:02:28.029Z,15
2017-03-08T08:03:27.562Z,15
2017-03-08T08:04:27.547Z,15
2017-03-08T08:05:28.304Z,15
2017-03-08T08:06:27.486Z,20
2017-03-08T08:07:27.467Z,20
2017-03-08T08:08:27.839Z,20
2017-03-08T08:09:27.396Z,20
2017-03-08T08:10:27.898Z,20
2017-03-08T08:11:28.129Z,20
2017-03-08T08:12:28.122Z,20
2017-03-08T08:13:26.915Z,20
2017-03-08T08:14:27.761Z,20
2017-03-08T08:15:28.137Z,20
2017-03-08T08:16:27.632Z,20
2017-03-08T08:17:27.610Z,20
2017-03-08T08:18:28.003Z,20
2017-03-08T08:19:27.196Z,20
2017-03-08T08:20:27.950Z,20
2017-03-08T08:21:27.528Z,20
2017-03-08T08:22:27.938Z,20
2017-03-08T08:23:27.871Z,20
2017-03-08T08:24:27.079Z,20
2017-03-08T08:25:27.879Z,20
2017-03-08T08:26:27.368Z,20
2017-03-08T08:27:26.562Z,20
2017-03-08T08:28:27.345Z,20
2017-03-08T08:29:27.813Z,20
2017-03-08T08:30:27.672Z,20
2017-03-08T08:31:26.948Z,20
2017-03-08T08:32:27.265Z,20
2017-03-08T08:33:27.271Z,20
2017-03-08T08:34:27.194Z,20
2017-03-08T08:35:27.277Z,25
2017-03-08T08:36:27.131Z,25
2017-03-08T08:37:27.123Z,25
2017-03-08T08:38:26.720Z,25
2017-03-08T08:39:26.683Z,25
2017-03-08T08:40:27.459Z,25
2017-03-08T08:41:27.075Z,25
2017-03-08T08:42:26.627Z,25
2017-03-08T08:43:27.377Z,25
2017-03-08T08:44:26.970Z,25
2017-03-08T08:45:26.622Z,25
2017-03-08T08:46:27.326Z,25
2017-03-08T08:47:27.269Z,25
2017-03-08T08:48:26.151Z,25
2017-03-08T08:49:26.899Z,30
2017-03-08T08:50:26.857Z,30
2017-03-08T08:51:26.796Z,30
2017-03-08T08:52:26.782Z,25
2017-03-08T08:53:26.734Z,25
2017-03-08T08:54:27.254Z,25
2017-03-08T08:55:27.121Z,25
2017-03-08T08:56:26.734Z,25
2017-03-08T08:57:26.249Z,25
2017-03-08T08:58:26.621Z,25
2017-03-08T08:59:26.975Z,25
2017-03-08T09:00:26.678Z,25
2017-03-08T09:01:26.178Z,25
2017-03-08T09:02:26.155Z,25
2017-03-08T09:03:26.120Z,25
2017-03-08T09:04:26.887Z,25
2017-03-08T09:05:26.846Z,25
2017-03-08T09:06:26.888Z,25
2017-03-08T09:07:26.411Z,25
2017-03-08T09:08:26.800Z,30
2017-03-08T09:09:26.437Z,30
2017-03-08T09:10:26.718Z,30
2017-03-08T09:11:26.345Z,25
2017-03-08T09:12:26.331Z,30
2017-03-08T09:13:25.094Z,30
2017-03-08T09:14:25.914Z,30
2017-03-08T09:15:25.472Z,30
2017-03-08T09:16:25.811Z,30
2017-03-08T09:17:26.243Z,30
2017-03-08T09:18:26.548Z,30
2017-03-08T09:19:25.744Z,30
2017-03-08T09:20:26.500Z,30
2017-03-08T09:21:25.787Z,30
2017-03-08T09:22:25.665Z,30
2017-03-08T09:23:26.031Z,30
2017-03-08T09:24:26.397Z,30
2017-03-08T09:25:25.972Z,30
2017-03-08T09:26:25.982Z,30
2017-03-08T09:27:25.575Z,30
2017-03-08T09:28:26.351Z,30
2017-03-08T09:29:25.507Z,30
2017-03-08T09:30:26.272Z,30
2017-03-08T09:31:25.456Z,30
2017-03-08T09:32:25.057Z,30
2017-03-08T09:33:25.841Z,30
2017-03-08T09:34:25.769Z,30
2017-03-08T09:35:26.155Z,30
2017-03-08T09:36:25.733Z,35
2017-03-08T09:37:25.718Z,35
2017-03-08T09:38:25.674Z,35
2017-03-08T09:39:25.638Z,35
2017-03-08T09:40:25.643Z,35
2017-03-08T09:41:25.991Z,40
2017-03-08T09:42:25.214Z,40
2017-03-08T09:43:25.948Z,40
2017-03-08T09:44:25.931Z,40
2017-03-08T09:45:25.515Z,45
2017-03-08T09:46:25.894Z,45
2017-03-08T09:47:24.715Z,45
2017-03-08T09:48:25.449Z,45
2017-03-08T09:49:24.723Z,45
2017-03-08T09:50:25.867Z,45
2017-03-08T09:51:24.968Z,45
2017-03-08T09:52:25.787Z,45
2017-03-08T09:53:25.322Z,45
2017-03-08T09:54:25.331Z,45
2017-03-08T09:55:25.284Z,45
2017-03-08T09:56:25.259Z,40
2017-03-08T09:57:25.623Z,40
2017-03-08T09:58:25.625Z,40
2017-03-08T09:59:25.228Z,40
2017-03-08T10:00:25.178Z,40
2017-03-08T10:01:24.760Z,40
2017-03-08T10:02:24.757Z,40
2017-03-08T10:03:24.699Z,40
2017-03-08T10:04:24.714Z,40
2017-03-08T10:05:25.081Z,40
2017-03-08T10:06:25.435Z,40
2017-03-08T10:07:25.006Z,40
2017-03-08T10:08:24.979Z,40
2017-03-08T10:09:25.334Z,40
2017-03-08T10:10:24.966Z,40
2017-03-08T10:11:25.343Z,40
2017-03-08T10:12:24.539Z,40
2017-03-08T10:13:24.488Z,40
2017-03-08T10:14:25.870Z,40
2017-03-08T10:15:24.507Z,40
2017-03-08T10:16:24.404Z,40
2017-03-08T10:17:24.761Z,40
2017-03-08T10:18:24.403Z,40
2017-03-08T10:19:25.096Z,40
2017-03-08T10:20:24.710Z,40
2017-03-08T10:21:24.672Z,40
2017-03-08T10:22:25.034Z,40
2017-03-08T10:23:24.305Z,35
2017-03-08T10:24:23.466Z,35
2017-03-08T10:25:24.432Z,35
2017-03-08T10:26:23.828Z,35
2017-03-08T10:27:24.925Z,35
2017-03-08T10:28:24.901Z,35
2017-03-08T10:29:24.542Z,35
2017-03-08T10:30:23.716Z,35
2017-03-08T10:31:24.414Z,35
2017-03-08T10:32:24.423Z,35
2017-03-08T10:33:24.004Z,35
2017-03-08T10:34:23.983Z,35
2017-03-08T10:35:24.342Z,30
2017-03-08T10:36:24.547Z,30
2017-03-08T10:37:24.300Z,30
2017-03-08T10:38:23.477Z,30
2017-03-08T10:39:23.928Z,30
2017-03-08T10:40:23.539Z,30
2017-03-08T10:41:23.832Z,30
2017-03-08T10:42:24.197Z,30
2017-03-08T10:43:24.538Z,35
2017-03-08T10:44:23.404Z,35
2017-03-08T10:45:23.718Z,35
2017-03-08T10:46:24.500Z,40
2017-03-08T10:47:23.313Z,40
2017-03-08T10:48:24.424Z,40
2017-03-08T10:49:23.652Z,40
2017-03-08T10:50:23.602Z,40
2017-03-08T10:51:23.992Z,40
2017-03-08T10:52:23.961Z,40
2017-03-08T10:53:24.326Z,40
2017-03-08T10:54:23.909Z,35
2017-03-08T10:55:24.285Z,35
2017-03-08T10:56:23.081Z,35
2017-03-08T10:57:24.233Z,35
2017-03-08T10:58:24.169Z,30
2017-03-08T10:59:23.828Z,30
2017-03-08T11:00:23.799Z,30
2017-03-08T11:01:23.336Z,30
2017-03-08T11:02:23.338Z,30
2017-03-08T11:03:23.676Z,30
2017-03-08T11:04:23.774Z,30
2017-03-08T11:05:22.854Z,30
2017-03-08T11:06:23.633Z,30
2017-03-08T11:07:23.232Z,30
2017-03-08T11:08:23.643Z,35
2017-03-08T11:09:23.215Z,35
2017-03-08T11:10:23.147Z,35
2017-03-08T11:11:23.486Z,35
2017-03-08T11:12:22.704Z,35
2017-03-08T11:13:23.083Z,30
2017-03-08T11:14:23.043Z,30
2017-03-08T11:15:23.391Z,30
2017-03-08T11:16:23.808Z,30
2017-03-08T11:17:23.368Z,30
2017-03-08T11:18:23.426Z,30
2017-03-08T11:19:23.728Z,30
2017-03-08T11:20:23.701Z,30
2017-03-08T11:21:23.657Z,30
2017-03-08T11:22:23.470Z,30
2017-03-08T11:23:23.635Z,30
2017-03-08T11:24:22.845Z,30
2017-03-08T11:25:23.641Z,30
2017-03-08T11:26:23.123Z,30
2017-03-08T11:27:23.246Z,30
2017-03-08T11:28:23.092Z,30
2017-03-08T11:29:23.153Z,30
2017-03-08T11:30:23.062Z,30
2017-03-08T11:31:23.123Z,30
2017-03-08T11:32:23.021Z,30
2017-03-08T11:33:23.520Z,25
2017-03-08T11:34:22.974Z,25
2017-03-08T11:35:23.066Z,25
2017-03-08T11:36:22.526Z,25
2017-03-08T11:37:23.318Z,25
2017-03-08T11:38:22.865Z,25
2017-03-08T11:39:23.224Z,20
2017-03-08T11:40:22.846Z,25
2017-03-08T11:41:23.294Z,25
2017-03-08T11:42:22.785Z,25
2017-03-08T11:43:22.753Z,25
2017-03-08T11:44:23.115Z,25
2017-03-08T11:45:22.693Z,25
2017-03-08T11:46:22.696Z,25
2017-03-08T11:47:22.262Z,25
2017-03-08T11:48:23.095Z,25
2017-03-08T11:49:22.990Z,25
2017-03-08T11:50:22.249Z,30
2017-03-08T11:51:22.690Z,30
2017-03-08T11:52:23.025Z,30
2017-03-08T11:53:22.153Z,30
2017-03-08T11:54:22.630Z,30
2017-03-08T11:55:22.460Z,30
2017-03-08T11:56:22.432Z,30
2017-03-08T11:57:22.409Z,30
2017-03-08T11:58:22.817Z,30
2017-03-08T11:59:22.752Z,35
2017-03-08T12:00:22.859Z,35
2017-03-08T12:01:21.908Z,35
2017-03-08T12:02:22.714Z,35
2017-03-08T12:03:22.307Z,35
2017-03-08T12:04:22.623Z,35
2017-03-08T12:05:22.584Z,35
2017-03-08T12:06:21.833Z,30
2017-03-08T12:07:22.256Z,30
2017-03-08T12:08:22.574Z,30
2017-03-08T12:09:21.748Z,35
2017-03-08T12:10:22.455Z,35
2017-03-08T12:11:22.071Z,40
2017-03-08T12:12:22.167Z,40
2017-03-08T12:13:22.519Z,40
2017-03-08T12:14:22.382Z,40
2017-03-08T12:15:21.998Z,40
2017-03-08T12:16:22.328Z,40
2017-03-08T12:17:22.386Z,40
2017-03-08T12:18:22.288Z,40
2017-03-08T12:19:21.893Z,45
2017-03-08T12:20:22.263Z,40
2017-03-08T12:21:21.050Z,40
2017-03-08T12:22:21.884Z,40
2017-03-08T12:23:21.464Z,40
2017-03-08T12:24:21.765Z,35
2017-03-08T12:25:21.768Z,30
2017-03-08T12:26:20.967Z,30
2017-03-08T12:27:21.753Z,35
2017-03-08T12:28:21.353Z,40
2017-03-08T12:29:21.282Z,35
2017-03-08T12:30:21.223Z,45
2017-03-08T12:31:21.588Z,45
2017-03-08T12:32:21.939Z,50
2017-03-08T12:33:22.041Z,50
2017-03-08T12:34:21.900Z,50
2017-03-08T12:35:21.564Z,55
2017-03-08T12:36:21.473Z,55
2017-03-08T12:37:20.709Z,55
2017-03-08T12:38:21.034Z,55
2017-03-08T12:39:21.786Z,50
2017-03-08T12:40:20.976Z,50
2017-03-08T12:41:20.972Z,55
2017-03-08T12:42:20.922Z,55
2017-03-08T12:43:20.563Z,55
2017-03-08T12:44:21.645Z,50
2017-03-08T12:45:21.660Z,50
2017-03-08T12:46:21.618Z,45
2017-03-08T12:47:21.599Z,40
2017-03-08T12:48:20.789Z,45
2017-03-08T12:49:21.320Z,50
2017-03-08T12:50:21.601Z,45
2017-03-08T12:51:21.101Z,45
2017-03-08T12:52:21.071Z,50
2017-03-08T12:53:21.153Z,45
2017-03-08T12:54:20.668Z,45
2017-03-08T12:55:20.628Z,40
2017-03-08T12:56:20.212Z,40
2017-03-08T12:57:20.984Z,35
2017-03-08T12:58:20.573Z,35
2017-03-08T12:59:20.912Z,40
2017-03-08T13:00:20.576Z,40
2017-03-08T13:01:20.897Z,35
2017-03-08T13:02:20.848Z,30
2017-03-08T13:03:20.903Z,30
2017-03-08T13:04:21.193Z,30
2017-03-08T13:05:20.380Z,30
2017-03-08T13:06:20.745Z,30
2017-03-08T13:07:20.722Z,30
2017-03-08T13:08:21.180Z,35
2017-03-08T13:09:20.723Z,30
2017-03-08T13:10:20.736Z,30
2017-03-08T13:11:20.921Z,25
2017-03-08T13:12:20.340Z,20
2017-03-08T13:13:20.576Z,20
2017-03-08T13:14:20.561Z,25
2017-03-08T13:15:20.966Z,25
2017-03-08T13:16:20.608Z,30
2017-03-08T13:17:21.364Z,35
2017-03-08T13:18:20.270Z,30
2017-03-08T13:19:20.046Z,30
2017-03-08T13:20:20.419Z,25
2017-03-08T13:21:20.576Z,25
2017-03-08T13:22:20.398Z,25
2017-03-08T13:23:20.734Z,25
2017-03-08T13:24:20.294Z,25
2017-03-08T13:25:20.323Z,25
2017-03-08T13:26:20.485Z,25
2017-03-08T13:27:20.622Z,30
2017-03-08T13:28:19.824Z,30
2017-03-08T13:29:20.254Z,30
2017-03-08T13:30:20.607Z,25
2017-03-08T13:31:20.230Z,25
2017-03-08T13:32:20.557Z,25
2017-03-08T13:33:19.735Z,20
2017-03-08T13:34:20.079Z,20
2017-03-08T13:35:20.521Z,25
2017-03-08T13:36:19.624Z,25
2017-03-08T13:37:19.596Z,20
2017-03-08T13:38:19.992Z,20
2017-03-08T13:39:20.431Z,20
2017-03-08T13:40:19.924Z,20
2017-03-08T13:41:19.906Z,20
2017-03-08T13:42:19.924Z,25
2017-03-08T13:43:19.845Z,25
2017-03-08T13:44:20.209Z,25
2017-03-08T13:45:19.813Z,25
2017-03-08T13:46:20.270Z,25
2017-03-08T13:47:19.364Z,25
2017-03-08T13:48:18.956Z,25
2017-03-08T13:49:19.705Z,25
2017-03-08T13:50:19.759Z,30
2017-03-08T13:51:19.639Z,30
2017-03-08T13:52:19.233Z,25
2017-03-08T13:53:20.022Z,25
2017-03-08T13:54:19.194Z,25
2017-03-08T13:55:19.216Z,30
2017-03-08T13:56:19.646Z,25
2017-03-08T13:57:19.534Z,25
2017-03-08T13:58:19.862Z,25
2017-03-08T13:59:19.463Z,30
2017-03-08T14:00:19.524Z,35
2017-03-08T14:01:19.505Z,35
2017-03-08T14:02:19.419Z,40
2017-03-08T14:03:19.411Z,35
2017-03-08T14:04:19.007Z,30
2017-03-08T14:05:18.609Z,35
2017-03-08T14:06:19.372Z,35
2017-03-08T14:07:19.276Z,35
2017-03-08T14:08:19.661Z,30
2017-03-08T14:09:18.810Z,30
2017-03-08T14:10:19.639Z,30
2017-03-08T14:11:18.771Z,30
2017-03-08T14:12:19.628Z,35
2017-03-08T14:13:19.121Z,35
2017-03-08T14:14:19.478Z,35
2017-03-08T14:15:19.075Z,35
2017-03-08T14:16:19.479Z,40
2017-03-08T14:17:18.644Z,40
2017-03-08T14:18:18.246Z,45
2017-03-08T14:19:18.585Z,45
2017-03-08T14:20:19.349Z,40
2017-03-08T14:21:18.139Z,35
2017-03-08T14:22:18.533Z,35
2017-03-08T14:23:18.891Z,35
2017-03-08T14:24:18.862Z,35
2017-03-08T14:25:18.055Z,35
2017-03-08T14:26:18.832Z,30
2017-03-08T14:27:18.808Z,30
2017-03-08T14:28:18.801Z,30
2017-03-08T14:29:18.396Z,30
2017-03-08T14:30:17.989Z,30